createdAt,value
2023-01-19T00:01:02.740Z,101249.06
2023-01-19T00:03:29.865Z,101215.25
2023-01-19T00:05:57.359Z,101240.72
2023-01-19T00:08:24.440Z,101236.00
2023-01-19T00:10:51.659Z,101250.22
2023-01-19T00:13:19.197Z,101239.78
2023-01-19T00:15:46.617Z,101225.94
2023-01-19T00:18:13.861Z,101230.25
2023-01-19T00:20:41.129Z,101239.28
2023-01-19T00:23:08.935Z,101236.44
2023-01-19T00:25:42.511Z,101229.41
2023-01-19T00:28:15.543Z,101245.91
2023-01-19T00:30:43.793Z,101248.63
2023-01-19T00:33:14.669Z,101254.97
2023-01-19T00:35:45.353Z,101257.94
2023-01-19T00:38:12.867Z,101253.81
2023-01-19T00:40:40.141Z,101262.25
2023-01-19T00:43:07.181Z,101270.78
2023-01-19T00:45:34.491Z,101258.28
2023-01-19T00:48:02.314Z,101272.03
2023-01-19T00:50:31.777Z,101278.81
2023-01-19T00:53:03.594Z,101273.78
2023-01-19T00:55:32.827Z,101264.19
2023-01-19T00:58:00.630Z,101280.50
2023-01-19T01:00:27.757Z,101279.94
2023-01-19T01:02:55.107Z,101272.59
2023-01-19T01:05:22.601Z,101264.38
2023-01-19T01:07:50.103Z,101263.16
2023-01-19T01:10:23.441Z,101267.34
2023-01-19T01:12:56.093Z,101263.06
2023-01-19T01:15:26.789Z,101278.88
2023-01-19T01:17:54.624Z,101250.50
2023-01-19T01:20:25.485Z,101283.16
2023-01-19T01:22:55.372Z,101274.44
2023-01-19T01:25:24.822Z,101264.47
2023-01-19T01:27:52.690Z,101257.97
2023-01-19T01:30:20.260Z,101263.16
2023-01-19T01:32:47.793Z,101281.53
2023-01-19T01:35:15.925Z,101272.69
2023-01-19T01:37:43.574Z,101276.97
2023-01-19T01:40:16.596Z,101287.72
2023-01-19T01:42:44.303Z,101289.66
2023-01-19T01:45:34.119Z,101294.97
2023-01-19T01:48:14.452Z,101277.41
2023-01-19T01:51:22.632Z,101291.19
2023-01-19T01:54:01.013Z,101275.53
2023-01-19T01:56:35.409Z,101294.56
2023-01-19T01:59:06.859Z,101287.88
2023-01-19T02:01:55.651Z,101301.47
2023-01-19T02:04:24.036Z,101292.13
2023-01-19T02:07:09.742Z,101292.19
2023-01-19T02:09:56.503Z,101304.63
2023-01-19T02:12:42.494Z,101315.91
2023-01-19T02:15:18.479Z,101315.59
2023-01-19T02:17:46.666Z,101326.31
2023-01-19T02:20:14.303Z,101329.53
2023-01-19T02:22:48.247Z,101313.47
2023-01-19T02:25:16.826Z,101322.13
2023-01-19T02:27:44.701Z,101324.81
2023-01-19T02:30:13.269Z,101311.34
2023-01-19T02:32:40.604Z,101315.25
2023-01-19T02:35:07.985Z,101278.53
2023-01-19T02:37:40.491Z,101295.41
2023-01-19T02:40:12.697Z,101313.06
2023-01-19T02:42:46.129Z,101317.34
2023-01-19T02:45:17.518Z,101303.81
2023-01-19T02:47:47.584Z,101307.59
2023-01-19T02:50:31.653Z,101325.28
2023-01-19T02:53:06.920Z,101331.22
2023-01-19T02:55:34.596Z,101337.25
2023-01-19T02:58:28.481Z,101334.19
2023-01-19T03:01:14.179Z,101326.97
2023-01-19T03:03:51.380Z,101325.16
2023-01-19T03:06:33.633Z,101314.88
2023-01-19T03:09:15.111Z,101315.84
2023-01-19T03:11:48.892Z,101311.56
2023-01-19T03:14:22.303Z,101306.34
2023-01-19T03:16:57.303Z,101314.06
2023-01-19T03:19:32.192Z,101313.22
2023-01-19T03:22:03.058Z,101297.19
2023-01-19T03:24:40.331Z,101322.63
2023-01-19T03:27:12.938Z,101318.44
2023-01-19T03:29:46.374Z,101304.66
2023-01-19T03:32:22.328Z,101321.53
2023-01-19T03:34:51.842Z,101319.16
2023-01-19T03:37:21.460Z,101302.97
2023-01-19T03:39:48.905Z,101291.31
2023-01-19T03:42:18.172Z,101319.72
2023-01-19T03:44:46.765Z,101315.88
2023-01-19T03:47:15.681Z,101317.00
2023-01-19T03:49:47.809Z,101309.00
2023-01-19T03:52:15.153Z,101312.50
2023-01-19T03:54:43.751Z,101307.28
2023-01-19T03:57:10.836Z,101305.22
2023-01-19T03:59:37.886Z,101297.78
2023-01-19T04:02:05.350Z,101314.69
2023-01-19T04:04:32.765Z,101293.66
2023-01-19T04:07:01.568Z,101301.44
2023-01-19T04:09:28.874Z,101323.81
2023-01-19T04:11:58.040Z,101319.09
2023-01-19T04:14:25.298Z,101338.03
2023-01-19T04:16:52.657Z,101335.81
2023-01-19T04:19:20.442Z,101341.50
2023-01-19T04:21:51.335Z,101333.38
2023-01-19T04:24:18.637Z,101324.56
2023-01-19T04:26:45.773Z,101334.56
2023-01-19T04:29:14.211Z,101304.66
2023-01-19T04:31:41.262Z,101318.28
2023-01-19T04:34:08.450Z,101341.94
2023-01-19T04:36:37.304Z,101354.47
2023-01-19T04:39:05.320Z,101342.28
2023-01-19T04:41:32.551Z,101341.25
2023-01-19T04:43:59.754Z,101342.09
2023-01-19T04:46:27.608Z,101363.47
2023-01-19T04:48:54.835Z,101360.75
2023-01-19T04:51:22.669Z,101344.56
2023-01-19T04:53:50.432Z,101360.75
2023-01-19T04:56:17.706Z,101363.78
2023-01-19T04:58:45.591Z,101348.75
2023-01-19T05:01:14.371Z,101350.34
2023-01-19T05:03:42.147Z,101350.19
2023-01-19T05:06:09.580Z,101367.25
2023-01-19T05:08:36.851Z,101382.72
2023-01-19T05:11:04.596Z,101389.56
2023-01-19T05:13:31.875Z,101382.09
2023-01-19T05:15:59.492Z,101384.22
2023-01-19T05:18:26.582Z,101389.31
2023-01-19T05:20:54.038Z,101392.66
2023-01-19T05:23:21.634Z,101398.81
2023-01-19T05:25:49.032Z,101400.38
2023-01-19T05:28:16.899Z,101385.16
2023-01-19T05:30:44.128Z,101402.44
2023-01-19T05:33:11.975Z,101394.09
2023-01-19T05:35:39.349Z,101398.84
2023-01-19T05:38:06.799Z,101402.25
2023-01-19T05:40:34.001Z,101413.66
2023-01-19T05:43:05.500Z,101410.47
2023-01-19T05:45:32.982Z,101415.25
2023-01-19T05:48:02.318Z,101413.63
2023-01-19T05:50:29.467Z,101417.16
2023-01-19T05:52:56.865Z,101412.84
2023-01-19T05:55:24.369Z,101426.75
2023-01-19T05:57:51.614Z,101407.69
2023-01-19T06:00:19.739Z,101423.81
2023-01-19T06:02:49.539Z,101423.09
2023-01-19T06:05:17.221Z,101422.28
2023-01-19T06:07:44.430Z,101417.50
2023-01-19T06:10:12.211Z,101419.13
2023-01-19T06:12:44.173Z,101431.63
2023-01-19T06:15:13.224Z,101407.88
2023-01-19T06:17:40.870Z,101416.47
2023-01-19T06:20:09.265Z,101419.22
2023-01-19T06:22:36.375Z,101419.31
2023-01-19T06:25:03.910Z,101436.63
2023-01-19T06:27:31.016Z,101416.88
2023-01-19T06:29:59.178Z,101435.78
2023-01-19T06:32:26.501Z,101441.00
2023-01-19T06:34:54.213Z,101444.25
2023-01-19T06:37:21.724Z,101431.09
2023-01-19T06:39:48.947Z,101443.66
2023-01-19T06:42:16.289Z,101448.97
2023-01-19T06:44:47.639Z,101458.56
2023-01-19T06:47:16.691Z,101455.22
2023-01-19T06:49:45.399Z,101443.22
2023-01-19T06:52:17.709Z,101457.34
2023-01-19T06:54:45.597Z,101444.13
2023-01-19T06:57:14.081Z,101410.53
2023-01-19T06:59:42.130Z,101451.59
2023-01-19T07:02:26.678Z,101419.56
2023-01-19T07:04:56.526Z,101432.75
2023-01-19T07:07:24.546Z,101444.41
2023-01-19T07:09:53.952Z,101426.94
2023-01-19T07:12:23.788Z,101425.00
2023-01-19T07:14:53.214Z,101428.44
2023-01-19T07:17:21.313Z,101451.81
2023-01-19T07:19:48.444Z,101444.59
2023-01-19T07:22:16.336Z,101439.25
2023-01-19T07:24:43.842Z,101446.91
2023-01-19T07:27:12.498Z,101439.16
2023-01-19T07:29:40.048Z,101446.41
2023-01-19T07:32:07.720Z,101471.00
2023-01-19T07:34:35.035Z,101462.16
2023-01-19T07:37:02.749Z,101479.66
2023-01-19T07:39:30.946Z,101482.09
2023-01-19T07:41:59.194Z,101484.03
2023-01-19T07:44:27.369Z,101488.44
2023-01-19T07:46:54.754Z,101502.56
2023-01-19T07:49:22.275Z,101485.22
2023-01-19T07:51:49.698Z,101510.22
2023-01-19T07:54:16.892Z,101510.06
2023-01-19T07:56:44.180Z,101497.88
2023-01-19T07:59:11.596Z,101487.91
2023-01-19T08:01:39.427Z,101474.94
2023-01-19T08:04:06.966Z,101511.16
2023-01-19T08:06:37.187Z,101490.63
2023-01-19T08:09:09.533Z,101508.19
2023-01-19T08:11:37.544Z,101489.00
2023-01-19T08:14:07.773Z,101478.34
2023-01-19T08:16:35.736Z,101475.13
2023-01-19T08:19:06.143Z,101463.22
2023-01-19T08:21:33.740Z,101467.75
2023-01-19T08:24:01.463Z,101471.56
2023-01-19T08:26:34.949Z,101469.81
2023-01-19T08:29:05.513Z,101472.31
2023-01-19T08:31:33.167Z,101464.63
2023-01-19T08:34:00.646Z,101474.78
2023-01-19T08:36:27.979Z,101465.44
2023-01-19T08:38:55.626Z,101457.72
2023-01-19T08:41:23.006Z,101463.53
2023-01-19T08:43:50.702Z,101459.38
2023-01-19T08:46:21.295Z,101468.72
2023-01-19T08:48:49.625Z,101449.50
2023-01-19T08:51:17.538Z,101460.44
2023-01-19T08:53:44.736Z,101461.72
2023-01-19T08:56:15.348Z,101456.25
2023-01-19T08:58:44.390Z,101446.59
2023-01-19T09:01:14.962Z,101450.41
2023-01-19T09:03:42.701Z,101434.97
2023-01-19T09:06:12.463Z,101441.38
2023-01-19T09:08:41.293Z,101435.31
2023-01-19T09:11:14.220Z,101443.69
2023-01-19T09:13:42.755Z,101440.69
2023-01-19T09:16:12.817Z,101430.03
2023-01-19T09:18:41.526Z,101419.59
2023-01-19T09:21:10.010Z,101419.91
2023-01-19T09:23:38.520Z,101406.22
2023-01-19T09:26:10.588Z,101413.31
2023-01-19T09:28:37.993Z,101407.56
2023-01-19T09:31:08.861Z,101407.78
2023-01-19T09:33:37.292Z,101406.50
2023-01-19T09:36:04.585Z,101405.13
2023-01-19T09:38:33.067Z,101397.59
2023-01-19T09:41:01.576Z,101403.41
2023-01-19T09:44:01.434Z,101392.25
2023-01-19T09:46:42.315Z,101394.72
2023-01-19T09:49:31.758Z,101389.13
2023-01-19T09:51:59.750Z,101379.97
2023-01-19T09:54:41.252Z,101394.97
2023-01-19T09:57:12.787Z,101392.78
2023-01-19T09:59:41.803Z,101392.84
2023-01-19T10:02:32.060Z,101392.56
2023-01-19T10:05:21.736Z,101411.34
2023-01-19T10:08:03.908Z,101410.34
2023-01-19T10:10:32.558Z,101377.41
2023-01-19T10:13:03.168Z,101414.94
2023-01-19T10:15:57.526Z,101395.00
2023-01-19T10:18:48.052Z,101390.56
2023-01-19T10:21:20.983Z,101386.31
2023-01-19T10:24:00.036Z,101395.94
2023-01-19T10:26:52.678Z,101400.72
2023-01-19T10:29:28.881Z,101411.31
2023-01-19T10:32:18.274Z,101390.84
2023-01-19T10:34:46.602Z,101402.25
2023-01-19T10:37:31.051Z,101413.06
2023-01-19T10:40:10.712Z,101430.34
2023-01-19T10:42:40.814Z,101398.56
2023-01-19T10:45:22.485Z,101430.94
2023-01-19T10:47:49.947Z,101412.47
2023-01-19T10:50:26.206Z,101435.63
2023-01-19T10:52:56.598Z,101430.91
2023-01-19T10:55:25.857Z,101432.41
2023-01-19T10:57:53.867Z,101432.88
2023-01-19T11:00:38.234Z,101438.13
2023-01-19T11:03:23.251Z,101426.97
2023-01-19T11:05:50.841Z,101419.78
2023-01-19T11:08:24.433Z,101418.75
2023-01-19T11:10:59.740Z,101405.41
2023-01-19T11:13:27.057Z,101412.06
2023-01-19T11:15:59.417Z,101418.81
2023-01-19T11:18:40.800Z,101413.63
2023-01-19T11:21:22.431Z,101412.41
2023-01-19T11:23:53.207Z,101406.16
2023-01-19T11:26:28.372Z,101423.66
2023-01-19T11:28:57.240Z,101427.16
2023-01-19T11:31:34.203Z,101422.88
2023-01-19T11:34:07.189Z,101413.38
2023-01-19T11:36:37.584Z,101435.31
2023-01-19T11:39:26.766Z,101438.13
2023-01-19T11:42:01.671Z,101436.25
2023-01-19T11:44:36.045Z,101428.59
2023-01-19T11:47:12.800Z,101443.00
2023-01-19T11:49:56.057Z,101419.69
2023-01-19T11:52:33.140Z,101441.03
2023-01-19T11:55:27.236Z,101453.59
2023-01-19T11:57:55.075Z,101443.53
2023-01-19T12:00:35.677Z,101454.75
2023-01-19T12:03:26.179Z,101459.84
2023-01-19T12:05:58.884Z,101447.41
2023-01-19T12:08:33.870Z,101453.22
2023-01-19T12:11:03.007Z,101459.53
2023-01-19T12:13:33.818Z,101448.09
2023-01-19T12:16:00.969Z,101467.78
2023-01-19T12:18:41.316Z,101457.53
2023-01-19T12:21:08.705Z,101449.13
2023-01-19T12:24:06.408Z,101462.66
2023-01-19T12:26:33.598Z,101469.38
2023-01-19T12:29:22.533Z,101451.72
2023-01-19T12:32:14.864Z,101470.56
2023-01-19T12:34:47.516Z,101460.66
2023-01-19T12:37:38.410Z,101477.41
2023-01-19T12:40:31.754Z,101458.28
2023-01-19T12:43:04.035Z,101463.22
2023-01-19T12:45:36.371Z,101461.34
2023-01-19T12:48:04.989Z,101469.09
2023-01-19T12:50:40.338Z,101467.56
2023-01-19T12:53:19.852Z,101466.97
2023-01-19T12:56:00.455Z,101454.91
2023-01-19T12:58:27.903Z,101474.47
2023-01-19T13:01:21.669Z,101483.28
2023-01-19T13:03:58.428Z,101466.47
2023-01-19T13:06:47.988Z,101478.94
2023-01-19T13:09:36.152Z,101474.88
2023-01-19T13:12:15.741Z,101492.72
2023-01-19T13:14:44.224Z,101482.53
2023-01-19T13:17:40.027Z,101476.41
2023-01-19T13:20:27.391Z,101478.09
2023-01-19T13:23:36.855Z,101481.78
2023-01-19T13:26:07.116Z,101475.50
2023-01-19T13:28:52.939Z,101471.00
2023-01-19T13:31:21.017Z,101464.94
2023-01-19T13:33:53.292Z,101479.91
2023-01-19T13:36:23.386Z,101476.03
2023-01-19T13:38:52.421Z,101465.88
2023-01-19T13:41:24.538Z,101478.81
2023-01-19T13:44:05.346Z,101470.66
2023-01-19T13:46:33.860Z,101479.31
2023-01-19T13:49:10.029Z,101491.13
2023-01-19T13:51:37.402Z,101480.47
2023-01-19T13:54:06.362Z,101481.84
2023-01-19T13:56:33.827Z,101491.69
2023-01-19T13:59:12.736Z,101506.16
2023-01-19T14:01:44.896Z,101479.56
2023-01-19T14:04:31.944Z,101495.97
2023-01-19T14:07:06.834Z,101490.91
2023-01-19T14:09:34.360Z,101486.38
2023-01-19T14:12:19.499Z,101498.31
2023-01-19T14:14:48.561Z,101475.78
2023-01-19T14:17:23.091Z,101486.88
2023-01-19T14:19:52.095Z,101501.50
2023-01-19T14:22:19.417Z,101497.81
2023-01-19T14:24:46.801Z,101506.44
2023-01-19T14:27:20.722Z,101500.75
2023-01-19T14:29:51.020Z,101512.59
2023-01-19T14:32:20.351Z,101501.34
2023-01-19T14:35:04.425Z,101502.34
2023-01-19T14:37:36.559Z,101467.22
2023-01-19T14:40:13.235Z,101502.84
2023-01-19T14:42:43.613Z,101503.66
2023-01-19T14:45:35.351Z,101498.19
2023-01-19T14:48:18.404Z,101476.25
2023-01-19T14:51:02.012Z,101491.13
2023-01-19T14:53:38.848Z,101486.38
2023-01-19T14:56:07.024Z,101500.53
2023-01-19T14:58:36.123Z,101499.59
2023-01-19T15:01:07.790Z,101495.94
2023-01-19T15:03:44.058Z,101492.50
2023-01-19T15:06:16.602Z,101505.78
2023-01-19T15:08:45.599Z,101509.31
2023-01-19T15:11:32.815Z,101504.75
2023-01-19T15:14:00.857Z,101500.84
2023-01-19T15:16:30.323Z,101521.00
2023-01-19T15:18:57.737Z,101504.69
2023-01-19T15:21:26.926Z,101512.84
2023-01-19T15:23:55.324Z,101488.09
2023-01-19T15:26:26.113Z,101501.44
2023-01-19T15:28:54.140Z,101501.31
2023-01-19T15:31:24.096Z,101505.47
2023-01-19T15:33:51.222Z,101513.50
2023-01-19T15:36:21.242Z,101512.88
2023-01-19T15:38:51.648Z,101517.72
2023-01-19T15:41:24.319Z,101512.50
2023-01-19T15:43:52.332Z,101495.47
2023-01-19T15:46:23.662Z,101500.44
2023-01-19T15:48:51.301Z,101509.66
2023-01-19T15:51:22.045Z,101493.72
2023-01-19T15:53:49.951Z,101509.66
2023-01-19T15:56:22.166Z,101511.41
2023-01-19T15:58:49.612Z,101499.47
2023-01-19T16:01:21.736Z,101517.72
2023-01-19T16:03:53.395Z,101531.31
2023-01-19T16:06:20.969Z,101519.78
2023-01-19T16:08:48.175Z,101521.03
2023-01-19T16:11:16.264Z,101512.06
2023-01-19T16:13:48.848Z,101522.69
2023-01-19T16:16:19.862Z,101523.47
2023-01-19T16:18:47.673Z,101504.16
2023-01-19T16:21:15.875Z,101509.81
2023-01-19T16:23:43.447Z,101502.00
2023-01-19T16:26:34.610Z,101516.72
2023-01-19T16:29:09.416Z,101511.00
2023-01-19T16:31:41.327Z,101519.72
2023-01-19T16:34:09.752Z,101513.34
2023-01-19T16:36:40.566Z,101515.59
2023-01-19T16:39:12.191Z,101495.34
2023-01-19T16:41:39.775Z,101510.81
2023-01-19T16:44:08.499Z,101507.25
2023-01-19T16:46:39.254Z,101522.44
2023-01-19T16:49:21.460Z,101516.00
2023-01-19T16:51:49.620Z,101524.34
2023-01-19T16:54:19.781Z,101527.44
2023-01-19T16:56:47.666Z,101530.81
2023-01-19T16:59:17.480Z,101508.59
2023-01-19T17:01:47.774Z,101528.44
2023-01-19T17:04:15.037Z,101518.69
2023-01-19T17:06:43.582Z,101518.59
2023-01-19T17:09:11.886Z,101513.38
2023-01-19T17:11:40.616Z,101521.66
2023-01-19T17:14:15.471Z,101516.97
2023-01-19T17:16:43.540Z,101508.06
2023-01-19T17:19:17.330Z,101496.50
2023-01-19T17:21:50.714Z,101504.50
2023-01-19T17:24:18.356Z,101511.06
2023-01-19T17:26:48.662Z,101506.69
2023-01-19T17:29:16.632Z,101500.81
2023-01-19T17:31:45.012Z,101510.50
2023-01-19T17:34:12.531Z,101514.84
2023-01-19T17:36:41.076Z,101512.78
2023-01-19T17:39:12.072Z,101500.44
2023-01-19T17:41:39.265Z,101502.31
2023-01-19T17:44:07.395Z,101514.06
2023-01-19T17:46:38.907Z,101509.75
2023-01-19T17:49:08.155Z,101509.56
2023-01-19T17:51:36.767Z,101510.50
2023-01-19T17:54:04.893Z,101507.63
2023-01-19T17:56:36.939Z,101507.16
2023-01-19T17:59:06.988Z,101506.22
2023-01-19T18:01:38.400Z,101500.09
2023-01-19T18:04:07.738Z,101522.34
2023-01-19T18:06:35.422Z,101514.78
2023-01-19T18:09:07.524Z,101510.97
2023-01-19T18:11:35.869Z,101517.63
2023-01-19T18:14:03.315Z,101511.50
2023-01-19T18:16:32.996Z,101513.00
2023-01-19T18:19:00.285Z,101525.19
2023-01-19T18:21:38.120Z,101535.91
2023-01-19T18:24:06.255Z,101532.81
2023-01-19T18:26:35.800Z,101514.47
2023-01-19T18:29:03.297Z,101514.78
2023-01-19T18:31:31.381Z,101518.78
2023-01-19T18:34:00.896Z,101509.56
2023-01-19T18:36:28.729Z,101523.41
2023-01-19T18:38:56.989Z,101529.09
2023-01-19T18:41:25.528Z,101522.41
2023-01-19T18:44:01.336Z,101505.69
2023-01-19T18:46:28.679Z,101517.13
2023-01-19T18:48:59.043Z,101521.00
2023-01-19T18:51:26.716Z,101518.22
2023-01-19T18:53:54.228Z,101534.22
2023-01-19T18:56:26.306Z,101540.03
2023-01-19T18:58:54.848Z,101528.56
2023-01-19T19:01:26.672Z,101544.16
2023-01-19T19:03:55.604Z,101542.75
2023-01-19T19:06:27.541Z,101552.59
2023-01-19T19:08:58.161Z,101554.78
2023-01-19T19:11:26.548Z,101557.88
2023-01-19T19:13:55.707Z,101555.75
2023-01-19T19:16:23.501Z,101555.25
2023-01-19T19:18:51.490Z,101548.81
2023-01-19T19:21:20.553Z,101536.44
2023-01-19T19:23:53.087Z,101554.88
2023-01-19T19:26:20.686Z,101540.31
2023-01-19T19:28:47.906Z,101536.38
2023-01-19T19:31:20.695Z,101535.34
2023-01-19T19:33:49.030Z,101543.59
2023-01-19T19:36:17.234Z,101534.81
2023-01-19T19:38:50.193Z,101543.53
2023-01-19T19:41:23.554Z,101536.56
2023-01-19T19:43:51.601Z,101543.94
2023-01-19T19:46:20.351Z,101545.41
2023-01-19T19:48:48.853Z,101547.88
2023-01-19T19:51:22.656Z,101550.06
2023-01-19T19:53:52.000Z,101554.16
2023-01-19T19:56:22.050Z,101544.16
2023-01-19T19:58:50.743Z,101544.41
2023-01-19T20:01:27.660Z,101545.63
2023-01-19T20:03:57.664Z,101544.72
2023-01-19T20:06:26.897Z,101558.03
2023-01-19T20:08:56.642Z,101554.41
2023-01-19T20:11:27.343Z,101554.63
2023-01-19T20:13:55.440Z,101541.81
2023-01-19T20:16:23.846Z,101547.00
2023-01-19T20:18:54.408Z,101554.34
2023-01-19T20:21:29.658Z,101559.06
2023-01-19T20:24:02.272Z,101567.28
2023-01-19T20:26:32.476Z,101560.06
2023-01-19T20:29:10.344Z,101549.88
2023-01-19T20:31:42.922Z,101565.84
2023-01-19T20:34:13.417Z,101559.34
2023-01-19T20:36:41.363Z,101553.66
2023-01-19T20:39:10.429Z,101550.78
2023-01-19T20:41:43.813Z,101559.84
2023-01-19T20:44:19.946Z,101550.22
2023-01-19T20:46:48.371Z,101556.56
2023-01-19T20:49:16.266Z,101548.84
2023-01-19T20:51:45.436Z,101543.78
2023-01-19T20:54:15.100Z,101557.06
2023-01-19T20:56:43.511Z,101556.06
2023-01-19T20:59:11.762Z,101546.81
2023-01-19T21:01:39.940Z,101543.59
2023-01-19T21:04:08.017Z,101544.03
2023-01-19T21:06:35.317Z,101521.34
2023-01-19T21:09:02.463Z,101549.00
2023-01-19T21:11:29.956Z,101528.47
2023-01-19T21:13:57.170Z,101539.13
2023-01-19T21:16:27.036Z,101540.75
2023-01-19T21:18:55.157Z,101545.81
2023-01-19T21:21:30.917Z,101539.16
2023-01-19T21:24:00.914Z,101526.28
2023-01-19T21:26:33.602Z,101516.88
2023-01-19T21:29:01.970Z,101533.78
2023-01-19T21:31:30.096Z,101530.25
2023-01-19T21:33:58.541Z,101515.84
2023-01-19T21:36:26.143Z,101531.50
2023-01-19T21:38:55.791Z,101518.88
2023-01-19T21:41:23.621Z,101517.97
2023-01-19T21:43:50.746Z,101514.66
2023-01-19T21:46:29.616Z,101521.34
2023-01-19T21:49:03.333Z,101525.94
2023-01-19T21:51:36.061Z,101528.72
2023-01-19T21:54:05.580Z,101523.22
2023-01-19T21:56:34.083Z,101515.91
2023-01-19T21:59:04.396Z,101511.22
2023-01-19T22:01:33.928Z,101500.38
2023-01-19T22:04:01.508Z,101510.50
2023-01-19T22:06:28.976Z,101519.56
2023-01-19T22:08:58.551Z,101515.09
2023-01-19T22:11:25.655Z,101519.72
2023-01-19T22:13:54.596Z,101499.22
2023-01-19T22:16:23.270Z,101496.81
2023-01-19T22:18:56.369Z,101510.28
2023-01-19T22:21:26.567Z,101508.66
2023-01-19T22:24:02.020Z,101511.84
2023-01-19T22:26:34.487Z,101517.31
2023-01-19T22:29:02.840Z,101505.00
2023-01-19T22:31:30.940Z,101505.41
2023-01-19T22:34:06.313Z,101497.97
2023-01-19T22:36:36.800Z,101514.41
2023-01-19T22:39:09.398Z,101510.56
2023-01-19T22:41:41.371Z,101517.78
2023-01-19T22:44:12.768Z,101494.09
2023-01-19T22:46:39.914Z,101498.69
2023-01-19T22:49:08.991Z,101507.94
2023-01-19T22:51:36.508Z,101512.25
2023-01-19T22:54:04.199Z,101511.19
2023-01-19T22:56:33.660Z,101506.88
2023-01-19T22:59:01.668Z,101507.03
2023-01-19T23:01:38.246Z,101517.13
2023-01-19T23:04:06.498Z,101513.88
2023-01-19T23:06:36.343Z,101523.41
2023-01-19T23:09:10.913Z,101519.78
2023-01-19T23:11:41.205Z,101524.72
2023-01-19T23:14:12.768Z,101524.97
2023-01-19T23:16:39.897Z,101523.03
2023-01-19T23:19:07.307Z,101501.41
2023-01-19T23:21:53.386Z,101519.94
2023-01-19T23:24:20.773Z,101523.41
2023-01-19T23:26:51.953Z,101537.47
2023-01-19T23:29:19.858Z,101512.94
2023-01-19T23:31:49.231Z,101548.06
2023-01-19T23:34:17.186Z,101535.91
2023-01-19T23:36:45.760Z,101528.59
2023-01-19T23:39:19.095Z,101540.09
2023-01-19T23:41:46.470Z,101551.91
2023-01-19T23:44:14.590Z,101543.63
2023-01-19T23:46:41.730Z,101534.72
2023-01-19T23:49:10.336Z,101537.13
2023-01-19T23:51:39.186Z,101540.47
2023-01-19T23:54:06.239Z,101532.56
2023-01-19T23:56:36.052Z,101549.16
2023-01-19T23:59:07.430Z,101536.75
